Pagrindinis puslapis
METAR-TAF:

METAR-TAF

Oro uostai :

Kelnas, Vokietija

platuma: 50-52N, ilguma: 007-10E, Aukštis: 91 m

Dabartinis oras

Ataskaita buvo paskelbta 21 minutes, ne 09:50 UTC
Vėjas 7 kt nuo kintamojo kryptimis
Temperatūra 19°C
Drėgmė 34%
Slėgis 1022 hPa
Matomumas 10 km arba daugiau
Mažai debesys ne aukštis 4500 ft

METAR: EDDK 310950Z VRB07KT 9999 FEW045 19/03 Q1022 NOSIG

Laikas: 12:11 (10:11 UTC)

Prognozė

Ataskaita buvo paskelbta 5 valandos ir 11 minutes, ne 05:00 UTC
Prognozė galioja nuo 31 metu 06 UTC su 01 metu 12 UTC
Vėjas 4 kt iš Rytų
Matomumas 10 km arba daugiau
nėra debesų žemiau 1500 m ir nėra kamuolinių lietaus debesų
Tapsmas
nuo 31 metu 07 UTC su 31 metu 10 UTC
Vėjas 10 kt iš Rytų/Šiaurės Rytų
Tapsmas
nuo 31 metu 17 UTC su 31 metu 20 UTC
Vėjas 4 kt iš Rytų
Tapsmas
nuo 01 metu 09 UTC su 01 metu 12 UTC
Vėjas 9 kt iš Rytų

TAF: EDDK 310500Z 3106/0112 09004KT CAVOK BECMG 3107/3110 07010KT BECMG 3117/3120 10004KT BECMG 0109/0112 09009KT

Orai ataskaitas ir orų prognozės (METAR, TAF).

turimą stotys yra geltonos ir raudonos taškus žemėlapyje.

Perkelti pele per norėdami pamatyti stoties vardą.

Tada spustelėkite, norėdami matyti oro stebėjimo ir prognozės.

Norėdami pakeisti žemėlapį: spustelėkite ant žalios mygtukų su juodo kryžiaus žemyn,; žalią mygtuką su brūkšneliu, jei norite nutolinti; arba žalių rodyklių gretimoms žemėlapius.


METAR-TAF: